createdAt,value
2023-11-24T00:00:06.406Z,23.25
2023-11-24T00:00:38.356Z,25.27
2023-11-24T00:01:10.237Z,23.50
2023-11-24T00:01:42.182Z,26.67
2023-11-24T00:02:14.356Z,25.77
2023-11-24T00:02:46.164Z,23.38
2023-11-24T00:03:18.139Z,28.08
2023-11-24T00:03:50.152Z,23.42
2023-11-24T00:04:22.088Z,27.40
2023-11-24T00:04:54.085Z,26.70
2023-11-24T00:05:26.001Z,23.48
2023-11-24T00:05:57.859Z,26.25
2023-11-24T00:06:29.757Z,20.73
2023-11-24T00:07:01.710Z,18.10
2023-11-24T00:07:33.576Z,21.30
2023-11-24T00:08:05.518Z,25.98
2023-11-24T00:08:37.425Z,26.45
2023-11-24T00:09:10.580Z,26.15
2023-11-24T00:09:42.392Z,25.63
2023-11-24T00:10:14.406Z,26.35
2023-11-24T00:10:46.237Z,23.92
2023-11-24T00:11:18.025Z,25.70
2023-11-24T00:11:50.468Z,25.15
2023-11-24T00:12:22.372Z,25.45
2023-11-24T00:12:54.300Z,27.42
2023-11-24T00:13:26.141Z,22.60
2023-11-24T00:13:58.036Z,29.13
2023-11-24T00:14:30.018Z,23.65
2023-11-24T00:15:02.062Z,20.25
2023-11-24T00:15:34.037Z,26.08
2023-11-24T00:16:06.582Z,24.25
2023-11-24T00:16:38.776Z,25.90
2023-11-24T00:17:11.002Z,27.13
2023-11-24T00:17:42.868Z,28.47
2023-11-24T00:18:14.956Z,26.45
2023-11-24T00:18:46.822Z,25.40
2023-11-24T00:19:18.673Z,27.95
2023-11-24T00:19:50.465Z,29.58
2023-11-24T00:20:22.232Z,27.55
2023-11-24T00:20:54.073Z,25.75
2023-11-24T00:21:25.910Z,31.85
2023-11-24T00:21:57.891Z,25.60
2023-11-24T00:22:29.721Z,28.88
2023-11-24T00:23:01.527Z,29.23
2023-11-24T00:23:33.446Z,26.17
2023-11-24T00:24:06.133Z,32.28
2023-11-24T00:24:39.310Z,32.30
2023-11-24T00:25:11.130Z,32.92
2023-11-24T00:25:42.921Z,26.30
2023-11-24T00:26:14.815Z,30.58
2023-11-24T00:26:46.648Z,31.38
2023-11-24T00:27:19.564Z,27.75
2023-11-24T00:27:51.408Z,30.67
2023-11-24T00:28:23.272Z,32.45
2023-11-24T00:28:55.130Z,29.65
2023-11-24T00:29:27.190Z,29.23
2023-11-24T00:29:58.992Z,29.52
2023-11-24T00:30:30.842Z,36.15
2023-11-24T00:31:02.707Z,31.95
2023-11-24T00:31:34.560Z,30.40
2023-11-24T00:32:07.202Z,31.88
2023-11-24T00:32:39.012Z,34.17
2023-11-24T00:33:10.878Z,31.40
2023-11-24T00:33:42.926Z,33.15
2023-11-24T00:34:14.885Z,33.75
2023-11-24T00:34:46.815Z,28.90
2023-11-24T00:35:18.870Z,38.00
2023-11-24T00:35:50.619Z,35.75
2023-11-24T00:36:22.647Z,28.58
2023-11-24T00:36:54.564Z,33.33
2023-11-24T00:37:26.371Z,25.65
2023-11-24T00:37:58.180Z,32.53
2023-11-24T00:38:29.949Z,38.65
2023-11-24T00:39:02.253Z,40.63
2023-11-24T00:39:34.367Z,33.97
2023-11-24T00:40:09.342Z,33.47
2023-11-24T00:40:41.169Z,37.55
2023-11-24T00:41:12.928Z,32.40
2023-11-24T00:41:44.725Z,39.13
2023-11-24T00:42:16.599Z,33.13
2023-11-24T00:42:48.469Z,32.65
2023-11-24T00:43:20.408Z,34.13
2023-11-24T00:43:52.529Z,30.92
2023-11-24T00:44:24.382Z,31.70
2023-11-24T00:44:56.220Z,29.15
2023-11-24T00:45:28.080Z,34.40
2023-11-24T00:45:59.978Z,28.27
2023-11-24T00:46:31.802Z,35.55
2023-11-24T00:47:03.636Z,35.70
2023-11-24T00:47:35.478Z,32.85
2023-11-24T00:48:07.402Z,33.30
2023-11-24T00:48:39.813Z,37.75
2023-11-24T00:49:11.635Z,31.38
2023-11-24T00:49:43.396Z,36.60
2023-11-24T00:50:15.494Z,32.58
2023-11-24T00:50:47.287Z,32.70
2023-11-24T00:51:19.085Z,33.08
2023-11-24T00:51:50.906Z,32.65
2023-11-24T00:52:22.710Z,28.77
2023-11-24T00:52:54.496Z,33.53
2023-11-24T00:53:26.318Z,37.50
2023-11-24T00:53:58.597Z,31.25
2023-11-24T00:54:30.390Z,35.30
2023-11-24T00:55:02.180Z,32.22
2023-11-24T00:55:35.292Z,35.05
2023-11-24T00:56:08.055Z,31.75
2023-11-24T00:56:39.867Z,36.70
2023-11-24T00:57:11.677Z,36.45
2023-11-24T00:57:43.508Z,30.05
2023-11-24T00:58:15.310Z,32.63
2023-11-24T00:58:47.258Z,32.45
2023-11-24T00:59:19.120Z,33.78
2023-11-24T00:59:50.988Z,32.47
2023-11-24T01:00:22.851Z,36.00
2023-11-24T01:00:54.824Z,31.10
2023-11-24T01:01:26.724Z,29.45
2023-11-24T01:01:58.594Z,34.70
2023-11-24T01:02:30.417Z,37.78
2023-11-24T01:03:02.244Z,35.00
2023-11-24T01:03:34.207Z,33.28
2023-11-24T01:04:06.670Z,33.97
2023-11-24T01:04:38.576Z,33.30
2023-11-24T01:05:10.504Z,37.90
2023-11-24T01:05:42.503Z,38.70
2023-11-24T01:06:14.275Z,39.28
2023-11-24T01:06:46.106Z,29.05
2023-11-24T01:07:17.921Z,35.60
2023-11-24T01:07:49.705Z,35.78
2023-11-24T01:08:21.644Z,39.05
2023-11-24T01:08:53.466Z,35.55
2023-11-24T01:09:25.294Z,41.90
2023-11-24T01:09:57.165Z,36.00
2023-11-24T01:10:29.019Z,35.65
2023-11-24T01:11:02.194Z,33.78
2023-11-24T01:11:33.964Z,41.83
2023-11-24T01:12:06.268Z,31.17
2023-11-24T01:12:38.243Z,35.40
2023-11-24T01:13:10.138Z,40.47
2023-11-24T01:13:41.951Z,37.50
2023-11-24T01:14:13.743Z,36.55
2023-11-24T01:14:45.551Z,39.70
2023-11-24T01:15:17.351Z,34.70
2023-11-24T01:15:49.152Z,36.95
2023-11-24T01:16:20.986Z,41.97
2023-11-24T01:16:52.767Z,32.33
2023-11-24T01:17:24.586Z,34.08
2023-11-24T01:17:56.377Z,37.55
2023-11-24T01:18:28.213Z,38.25
2023-11-24T01:19:00.054Z,44.67
2023-11-24T01:19:31.849Z,39.42
2023-11-24T01:20:05.069Z,35.60
2023-11-24T01:20:37.113Z,39.45
2023-11-24T01:21:10.514Z,37.20
2023-11-24T01:21:42.468Z,32.60
2023-11-24T01:22:14.287Z,36.45
2023-11-24T01:22:46.140Z,34.95
2023-11-24T01:23:17.954Z,32.28
2023-11-24T01:23:51.974Z,42.75
2023-11-24T01:24:25.071Z,39.10
2023-11-24T01:24:56.987Z,36.97
2023-11-24T01:25:28.804Z,32.70
2023-11-24T01:26:02.844Z,31.38
2023-11-24T01:26:34.618Z,28.80
2023-11-24T01:27:06.393Z,33.90
2023-11-24T01:27:38.253Z,36.20
2023-11-24T01:28:10.045Z,33.42
2023-11-24T01:28:41.886Z,34.05
2023-11-24T01:29:13.667Z,39.65
2023-11-24T01:29:45.465Z,37.58
2023-11-24T01:30:17.258Z,32.83
2023-11-24T01:30:49.199Z,34.65
2023-11-24T01:31:21.132Z,36.60
2023-11-24T01:31:52.962Z,29.42
2023-11-24T01:32:24.810Z,31.55
2023-11-24T01:32:56.770Z,33.00
2023-11-24T01:33:28.669Z,35.15
2023-11-24T01:34:00.545Z,31.95
2023-11-24T01:34:32.471Z,33.63
2023-11-24T01:35:05.827Z,34.05
2023-11-24T01:35:37.630Z,34.13
2023-11-24T01:36:09.837Z,33.92
2023-11-24T01:36:42.034Z,31.40
2023-11-24T01:37:14.308Z,32.17
2023-11-24T01:37:46.161Z,37.33
2023-11-24T01:38:17.983Z,29.77
2023-11-24T01:38:49.756Z,37.22
2023-11-24T01:39:21.615Z,32.50
2023-11-24T01:39:53.501Z,34.13
2023-11-24T01:40:25.409Z,34.17
2023-11-24T01:40:57.178Z,34.10
2023-11-24T01:41:30.270Z,37.22
2023-11-24T01:42:02.063Z,38.80
2023-11-24T01:42:36.411Z,33.72
2023-11-24T01:43:08.214Z,30.75
2023-11-24T01:43:40.050Z,36.75
2023-11-24T01:44:11.900Z,34.60
2023-11-24T01:44:43.668Z,29.48
2023-11-24T01:45:15.711Z,37.90
2023-11-24T01:45:47.599Z,28.98
2023-11-24T01:46:19.457Z,32.00
2023-11-24T01:46:51.371Z,35.17
2023-11-24T01:47:23.182Z,32.67
2023-11-24T01:47:55.325Z,34.28
2023-11-24T01:48:29.897Z,28.10
2023-11-24T01:49:04.020Z,33.53
2023-11-24T01:49:35.947Z,33.28
2023-11-24T01:50:09.237Z,33.95
2023-11-24T01:50:41.164Z,33.85
2023-11-24T01:51:12.987Z,36.85
2023-11-24T01:51:45.111Z,35.28
2023-11-24T01:52:16.941Z,37.58
2023-11-24T01:52:48.777Z,32.22
2023-11-24T01:53:20.700Z,35.75
2023-11-24T01:53:54.001Z,32.25
2023-11-24T01:54:26.478Z,39.55
2023-11-24T01:54:58.808Z,33.17
2023-11-24T01:55:30.668Z,33.50
2023-11-24T01:56:02.672Z,40.72
2023-11-24T01:56:36.372Z,32.47
2023-11-24T01:57:08.795Z,37.75
2023-11-24T01:57:41.220Z,38.88
2023-11-24T01:58:13.079Z,39.58
2023-11-24T01:58:45.426Z,34.30
2023-11-24T01:59:18.437Z,38.28
2023-11-24T01:59:50.309Z,41.60
2023-11-24T02:00:22.229Z,35.70
2023-11-24T02:00:54.163Z,33.50
2023-11-24T02:01:28.006Z,34.10
2023-11-24T02:01:59.896Z,38.90
2023-11-24T02:02:32.062Z,31.52
2023-11-24T02:03:04.109Z,30.38
2023-11-24T02:03:36.050Z,37.33
2023-11-24T02:04:08.036Z,33.75
2023-11-24T02:04:39.857Z,38.90
2023-11-24T02:05:12.378Z,32.88
2023-11-24T02:05:44.245Z,34.40
2023-11-24T02:06:16.140Z,30.85
2023-11-24T02:06:48.045Z,34.92
2023-11-24T02:07:19.912Z,32.55
2023-11-24T02:07:52.852Z,31.92
2023-11-24T02:08:24.669Z,27.83
2023-11-24T02:08:56.652Z,32.05
2023-11-24T02:09:28.518Z,27.45
2023-11-24T02:10:01.382Z,32.90
2023-11-24T02:10:33.979Z,30.98
2023-11-24T02:11:06.448Z,32.38
2023-11-24T02:11:39.585Z,27.92
2023-11-24T02:12:11.409Z,35.53
2023-11-24T02:12:43.315Z,31.20
2023-11-24T02:13:15.204Z,33.17
2023-11-24T02:13:48.577Z,28.13
2023-11-24T02:14:20.399Z,29.35
2023-11-24T02:14:52.196Z,30.92
2023-11-24T02:15:24.030Z,27.52
2023-11-24T02:15:57.816Z,24.88
2023-11-24T02:16:29.928Z,24.23
2023-11-24T02:17:01.803Z,30.05
2023-11-24T02:17:33.714Z,31.17
2023-11-24T02:18:05.629Z,33.28
2023-11-24T02:18:37.488Z,36.53
2023-11-24T02:19:09.567Z,32.55
2023-11-24T02:19:41.435Z,35.42
2023-11-24T02:20:14.854Z,34.13
2023-11-24T02:20:47.032Z,33.40
2023-11-24T02:21:18.880Z,31.63
2023-11-24T02:21:50.729Z,34.10
2023-11-24T02:22:22.549Z,31.98
2023-11-24T02:22:55.693Z,30.00
2023-11-24T02:23:27.516Z,36.45
2023-11-24T02:23:59.348Z,29.73
2023-11-24T02:24:31.157Z,30.50
2023-11-24T02:25:03.034Z,27.30
2023-11-24T02:25:34.871Z,30.75
2023-11-24T02:26:06.713Z,32.63
2023-11-24T02:26:38.498Z,33.47
2023-11-24T02:27:10.322Z,30.10
2023-11-24T02:27:42.255Z,34.00
2023-11-24T02:28:14.202Z,29.42
2023-11-24T02:28:46.215Z,27.10
2023-11-24T02:29:18.013Z,33.08
2023-11-24T02:29:49.811Z,28.55
2023-11-24T02:30:21.582Z,32.53
2023-11-24T02:30:53.560Z,36.90
2023-11-24T02:31:25.880Z,29.55
2023-11-24T02:31:57.801Z,33.15
2023-11-24T02:32:29.615Z,33.97
2023-11-24T02:33:01.443Z,28.45
2023-11-24T02:33:33.305Z,31.17
2023-11-24T02:34:05.295Z,28.45
2023-11-24T02:34:37.204Z,29.13
2023-11-24T02:35:09.362Z,31.98
2023-11-24T02:35:41.216Z,26.10
2023-11-24T02:36:13.048Z,27.30
2023-11-24T02:36:44.896Z,31.98
2023-11-24T02:37:16.832Z,31.75
2023-11-24T02:37:48.681Z,32.78
2023-11-24T02:38:21.869Z,28.10
2023-11-24T02:38:53.692Z,31.83
2023-11-24T02:39:25.505Z,29.13
2023-11-24T02:39:57.480Z,25.70
2023-11-24T02:40:29.327Z,27.48
2023-11-24T02:41:01.487Z,29.75
2023-11-24T02:41:33.375Z,28.15
2023-11-24T02:42:05.460Z,33.13
2023-11-24T02:42:37.340Z,29.88
2023-11-24T02:43:09.193Z,31.05
2023-11-24T02:43:41.020Z,25.23
2023-11-24T02:44:12.941Z,27.60
2023-11-24T02:44:45.643Z,30.95
2023-11-24T02:45:17.552Z,29.02
2023-11-24T02:45:49.376Z,34.60
2023-11-24T02:46:21.199Z,35.58
2023-11-24T02:46:52.985Z,31.75
2023-11-24T02:47:24.918Z,28.38
2023-11-24T02:47:56.834Z,29.33
2023-11-24T02:48:28.806Z,26.77
2023-11-24T02:49:00.914Z,30.50
2023-11-24T02:49:32.807Z,30.05
2023-11-24T02:50:06.487Z,35.63
2023-11-24T02:50:38.548Z,31.15
2023-11-24T02:51:10.810Z,32.97
2023-11-24T02:51:42.601Z,32.50
2023-11-24T02:52:14.471Z,31.98
2023-11-24T02:52:46.281Z,31.27
2023-11-24T02:53:18.056Z,29.45
2023-11-24T02:53:51.225Z,25.73
2023-11-24T02:54:23.058Z,29.35
2023-11-24T02:54:54.914Z,34.20
2023-11-24T02:55:26.722Z,34.92
2023-11-24T02:55:58.533Z,32.50
2023-11-24T02:56:30.304Z,27.90
2023-11-24T02:57:02.200Z,29.90
2023-11-24T02:57:34.089Z,31.35
2023-11-24T02:58:05.928Z,27.23
2023-11-24T02:58:38.082Z,28.25
2023-11-24T02:59:09.902Z,34.05
2023-11-24T02:59:41.732Z,34.22
2023-11-24T03:00:14.337Z,33.38
2023-11-24T03:00:46.220Z,33.80
2023-11-24T03:01:18.145Z,29.35
2023-11-24T03:01:50.082Z,31.27
2023-11-24T03:02:22.027Z,29.73
2023-11-24T03:02:53.865Z,36.55
2023-11-24T03:03:27.019Z,32.72
2023-11-24T03:03:58.925Z,36.33
2023-11-24T03:04:30.803Z,31.17
2023-11-24T03:05:02.752Z,34.33
2023-11-24T03:05:34.601Z,35.00
2023-11-24T03:06:06.895Z,35.40
2023-11-24T03:06:41.910Z,32.58
2023-11-24T03:07:13.737Z,35.15
2023-11-24T03:07:45.961Z,29.83
2023-11-24T03:08:17.850Z,27.67
2023-11-24T03:08:50.998Z,28.98
2023-11-24T03:09:22.846Z,31.77
2023-11-24T03:09:54.778Z,29.10
2023-11-24T03:10:26.609Z,31.02
2023-11-24T03:10:58.474Z,28.02
2023-11-24T03:11:30.250Z,29.73
2023-11-24T03:12:02.065Z,33.97
2023-11-24T03:12:33.884Z,37.65
2023-11-24T03:13:05.765Z,33.33
2023-11-24T03:13:37.584Z,33.85
2023-11-24T03:14:09.359Z,29.27
2023-11-24T03:14:41.143Z,30.85
2023-11-24T03:15:13.026Z,27.35
2023-11-24T03:15:44.901Z,29.58
2023-11-24T03:16:16.740Z,27.08
2023-11-24T03:16:48.964Z,30.20
2023-11-24T03:17:20.979Z,26.55
2023-11-24T03:17:52.939Z,34.58
2023-11-24T03:18:24.884Z,29.10
2023-11-24T03:18:56.691Z,28.20
2023-11-24T03:19:28.532Z,33.50
2023-11-24T03:20:00.406Z,31.65
2023-11-24T03:20:32.205Z,26.08
2023-11-24T03:21:04.315Z,34.22
2023-11-24T03:21:36.112Z,33.08
2023-11-24T03:22:07.932Z,26.95
2023-11-24T03:22:39.824Z,25.38
2023-11-24T03:23:11.665Z,31.70
2023-11-24T03:23:43.544Z,29.58
2023-11-24T03:24:16.693Z,31.90
2023-11-24T03:24:48.572Z,26.35
2023-11-24T03:25:20.416Z,33.03
2023-11-24T03:25:52.264Z,25.17
2023-11-24T03:26:24.057Z,29.10
2023-11-24T03:26:55.837Z,28.35
2023-11-24T03:27:27.670Z,30.17
2023-11-24T03:27:59.493Z,32.13
2023-11-24T03:28:31.350Z,25.85
2023-11-24T03:29:03.608Z,24.75
2023-11-24T03:29:35.441Z,27.70
2023-11-24T03:30:08.383Z,26.42
2023-11-24T03:30:40.309Z,26.98
2023-11-24T03:31:12.109Z,28.83
2023-11-24T03:31:43.897Z,25.33
2023-11-24T03:32:15.757Z,24.10
2023-11-24T03:32:47.741Z,27.63
2023-11-24T03:33:19.525Z,25.92
2023-11-24T03:33:51.378Z,28.20
2023-11-24T03:34:23.308Z,23.48
2023-11-24T03:34:55.496Z,24.27
2023-11-24T03:35:27.276Z,28.35
2023-11-24T03:35:59.095Z,30.75
2023-11-24T03:36:30.917Z,25.63
2023-11-24T03:37:02.863Z,19.40
2023-11-24T03:37:34.784Z,25.02
2023-11-24T03:38:06.556Z,21.75
2023-11-24T03:38:38.869Z,23.63
2023-11-24T03:39:10.639Z,25.50
2023-11-24T03:39:43.891Z,28.20
2023-11-24T03:40:16.086Z,25.75
2023-11-24T03:40:47.890Z,27.63
2023-11-24T03:41:19.742Z,27.33
2023-11-24T03:41:51.530Z,25.80
2023-11-24T03:42:23.478Z,22.25
2023-11-24T03:42:55.352Z,26.73
2023-11-24T03:43:27.168Z,27.65
2023-11-24T03:43:59.017Z,24.33
2023-11-24T03:44:30.821Z,24.88
2023-11-24T03:45:02.849Z,27.83
2023-11-24T03:45:34.655Z,29.30
2023-11-24T03:46:07.070Z,28.30
2023-11-24T03:46:38.920Z,26.05
2023-11-24T03:47:10.744Z,25.25
2023-11-24T03:47:42.584Z,24.70
2023-11-24T03:48:14.572Z,29.25
2023-11-24T03:48:46.458Z,27.48
2023-11-24T03:49:18.356Z,24.92
2023-11-24T03:49:50.157Z,27.65
2023-11-24T03:50:22.009Z,32.80
2023-11-24T03:50:53.807Z,26.17
2023-11-24T03:51:25.657Z,25.10
2023-11-24T03:52:00.235Z,30.00
2023-11-24T03:52:32.083Z,26.17
2023-11-24T03:53:03.909Z,24.42
2023-11-24T03:53:35.694Z,31.10
2023-11-24T03:54:07.546Z,24.92
2023-11-24T03:54:39.335Z,24.95
2023-11-24T03:55:12.473Z,28.88
2023-11-24T03:55:44.329Z,29.38
2023-11-24T03:56:16.984Z,24.58
2023-11-24T03:56:49.004Z,23.75
2023-11-24T03:57:20.854Z,31.60
2023-11-24T03:57:52.675Z,28.67
2023-11-24T03:58:24.486Z,28.67
2023-11-24T03:58:56.264Z,27.70
2023-11-24T03:59:28.080Z,27.50
2023-11-24T03:59:59.851Z,26.00
2023-11-24T04:00:31.646Z,31.15
2023-11-24T04:01:03.551Z,29.98
2023-11-24T04:01:35.485Z,27.98
2023-11-24T04:02:07.454Z,24.63
2023-11-24T04:02:39.353Z,23.20
2023-11-24T04:03:11.338Z,31.33
2023-11-24T04:03:46.955Z,25.00
2023-11-24T04:04:18.789Z,26.75
2023-11-24T04:04:50.573Z,25.35
2023-11-24T04:05:22.341Z,25.60
2023-11-24T04:05:54.146Z,28.95
2023-11-24T04:06:26.149Z,24.55
2023-11-24T04:06:58.001Z,27.10
2023-11-24T04:07:30.091Z,20.75
2023-11-24T04:08:01.905Z,23.48
2023-11-24T04:08:33.734Z,24.42
2023-11-24T04:09:05.620Z,26.70
2023-11-24T04:09:37.401Z,21.80
2023-11-24T04:10:10.078Z,27.30
2023-11-24T04:10:43.371Z,23.58
2023-11-24T04:11:15.221Z,26.80
2023-11-24T04:11:47.000Z,26.85
2023-11-24T04:12:18.782Z,27.05
2023-11-24T04:12:50.683Z,26.33
2023-11-24T04:13:22.466Z,26.85
2023-11-24T04:13:54.341Z,22.10
2023-11-24T04:14:26.194Z,23.80
2023-11-24T04:14:57.989Z,21.73
2023-11-24T04:15:29.851Z,25.10
2023-11-24T04:16:01.752Z,23.77
2023-11-24T04:16:33.672Z,23.63
2023-11-24T04:17:05.555Z,23.58
2023-11-24T04:17:37.484Z,23.75
2023-11-24T04:18:09.442Z,27.48
2023-11-24T04:18:41.654Z,25.10
2023-11-24T04:19:13.524Z,21.25
2023-11-24T04:19:45.343Z,21.63
2023-11-24T04:20:17.282Z,22.60
2023-11-24T04:20:49.150Z,21.88
2023-11-24T04:21:20.965Z,23.63
2023-11-24T04:21:52.951Z,22.65
2023-11-24T04:22:24.899Z,18.88
2023-11-24T04:22:56.715Z,23.05
2023-11-24T04:23:28.524Z,20.35
2023-11-24T04:24:00.308Z,20.55
2023-11-24T04:24:32.130Z,22.02
2023-11-24T04:25:04.861Z,20.65
2023-11-24T04:25:36.732Z,22.65
2023-11-24T04:26:09.875Z,22.48
2023-11-24T04:26:41.682Z,24.80
2023-11-24T04:27:13.559Z,20.50
2023-11-24T04:27:45.393Z,25.60
2023-11-24T04:28:17.436Z,20.60
2023-11-24T04:28:49.252Z,22.70
2023-11-24T04:29:21.091Z,18.02
2023-11-24T04:29:52.911Z,20.52
2023-11-24T04:30:24.800Z,20.35
2023-11-24T04:30:56.664Z,17.88
2023-11-24T04:31:28.608Z,18.73
2023-11-24T04:32:00.426Z,18.73
2023-11-24T04:32:32.334Z,18.98
2023-11-24T04:33:04.365Z,20.00
2023-11-24T04:33:36.364Z,21.10
2023-11-24T04:34:08.303Z,21.48
2023-11-24T04:34:40.230Z,20.27
2023-11-24T04:35:12.126Z,21.27
2023-11-24T04:35:43.939Z,20.00
2023-11-24T04:36:15.781Z,18.75
2023-11-24T04:36:47.589Z,18.85
2023-11-24T04:37:19.450Z,19.63
2023-11-24T04:37:51.295Z,21.60
2023-11-24T04:38:23.235Z,18.20
2023-11-24T04:38:55.018Z,16.17
2023-11-24T04:39:27.178Z,18.08
2023-11-24T04:39:59.041Z,17.23
2023-11-24T04:40:30.875Z,20.98
2023-11-24T04:41:02.677Z,19.67
2023-11-24T04:41:35.812Z,16.80
2023-11-24T04:42:07.652Z,14.80
2023-11-24T04:42:39.694Z,20.20
2023-11-24T04:43:11.688Z,15.35
2023-11-24T04:43:43.555Z,16.60
2023-11-24T04:44:15.443Z,22.75
2023-11-24T04:44:47.313Z,16.90
2023-11-24T04:45:19.206Z,16.65
2023-11-24T04:45:51.094Z,19.33
2023-11-24T04:46:22.990Z,21.90
2023-11-24T04:46:54.930Z,17.80
2023-11-24T04:47:26.731Z,17.33
2023-11-24T04:47:58.657Z,15.90
2023-11-24T04:48:30.458Z,18.30
2023-11-24T04:49:02.313Z,18.92
2023-11-24T04:49:34.146Z,20.58
2023-11-24T04:50:07.776Z,16.30
2023-11-24T04:50:39.592Z,17.52
2023-11-24T04:51:11.358Z,23.98
2023-11-24T04:51:43.164Z,19.92
2023-11-24T04:52:15.064Z,14.43
2023-11-24T04:52:46.894Z,21.23
2023-11-24T04:53:18.695Z,18.15
2023-11-24T04:53:50.454Z,17.55
2023-11-24T04:54:22.228Z,14.80
2023-11-24T04:54:54.097Z,15.95
2023-11-24T04:55:26.015Z,19.60
2023-11-24T04:55:57.822Z,16.17
2023-11-24T04:56:29.738Z,21.23
2023-11-24T04:57:02.950Z,22.73
2023-11-24T04:57:34.835Z,17.38
2023-11-24T04:58:06.705Z,17.10
2023-11-24T04:58:38.527Z,19.83
2023-11-24T04:59:10.325Z,18.50
2023-11-24T04:59:42.422Z,17.55
2023-11-24T05:00:15.790Z,18.95
2023-11-24T05:00:47.738Z,25.13
2023-11-24T05:01:19.986Z,23.67
2023-11-24T05:01:51.944Z,23.48
2023-11-24T05:02:23.978Z,20.40
2023-11-24T05:02:55.805Z,18.88
2023-11-24T05:03:27.726Z,20.88
2023-11-24T05:03:59.678Z,20.10
2023-11-24T05:04:31.526Z,19.42
2023-11-24T05:05:03.770Z,17.83
2023-11-24T05:05:35.562Z,19.23
2023-11-24T05:06:07.992Z,18.85
2023-11-24T05:06:39.822Z,18.70
2023-11-24T05:07:11.674Z,17.38
2023-11-24T05:07:43.532Z,21.13
2023-11-24T05:08:15.326Z,19.80
2023-11-24T05:08:48.869Z,22.48
2023-11-24T05:09:20.807Z,22.25
2023-11-24T05:09:52.862Z,19.77
2023-11-24T05:10:24.683Z,20.92
2023-11-24T05:10:56.471Z,18.20
2023-11-24T05:11:28.330Z,17.97
2023-11-24T05:12:01.603Z,17.85
2023-11-24T05:12:33.438Z,21.25
2023-11-24T05:13:05.282Z,17.75
2023-11-24T05:13:37.205Z,18.08
2023-11-24T05:14:09.056Z,19.60
2023-11-24T05:14:40.891Z,21.10
2023-11-24T05:15:12.665Z,19.02
2023-11-24T05:15:44.709Z,19.00
2023-11-24T05:16:16.605Z,18.77
2023-11-24T05:16:48.500Z,20.90
2023-11-24T05:17:20.292Z,18.73
2023-11-24T05:17:52.226Z,17.13
2023-11-24T05:18:24.138Z,18.08
2023-11-24T05:18:56.078Z,17.77
2023-11-24T05:19:27.953Z,21.27
2023-11-24T05:19:59.807Z,20.65
2023-11-24T05:20:31.638Z,19.52
2023-11-24T05:21:03.600Z,13.93
2023-11-24T05:21:35.465Z,17.85
2023-11-24T05:22:07.314Z,19.50
2023-11-24T05:22:39.157Z,14.00
2023-11-24T05:23:10.996Z,17.83
2023-11-24T05:23:42.856Z,17.42
2023-11-24T05:24:14.846Z,17.52
2023-11-24T05:24:46.658Z,18.33
2023-11-24T05:25:18.563Z,17.40
2023-11-24T05:25:50.317Z,18.65
2023-11-24T05:26:23.672Z,19.65
2023-11-24T05:26:57.405Z,19.45
2023-11-24T05:27:30.735Z,18.65
2023-11-24T05:28:02.739Z,19.55
2023-11-24T05:28:34.526Z,16.90
2023-11-24T05:29:06.354Z,17.27
2023-11-24T05:29:38.134Z,15.68
2023-11-24T05:30:11.117Z,15.63
2023-11-24T05:30:43.017Z,18.08
2023-11-24T05:31:14.868Z,17.45
2023-11-24T05:31:46.759Z,15.65
2023-11-24T05:32:18.609Z,15.60
2023-11-24T05:32:50.461Z,20.52
2023-11-24T05:33:22.260Z,14.60
2023-11-24T05:33:54.115Z,13.30
2023-11-24T05:34:25.920Z,18.77
2023-11-24T05:34:57.699Z,13.63
2023-11-24T05:35:29.586Z,17.48
2023-11-24T05:36:01.346Z,17.08
2023-11-24T05:36:33.677Z,15.70
2023-11-24T05:37:05.516Z,15.60
2023-11-24T05:37:37.349Z,18.50
2023-11-24T05:38:09.146Z,15.55
2023-11-24T05:38:41.318Z,16.55
2023-11-24T05:39:13.181Z,18.17
2023-11-24T05:39:44.982Z,16.80
2023-11-24T05:40:16.798Z,13.70
2023-11-24T05:40:48.590Z,18.13
2023-11-24T05:41:20.438Z,16.25
2023-11-24T05:41:52.244Z,14.05
2023-11-24T05:42:24.055Z,20.08
2023-11-24T05:42:57.222Z,17.05
2023-11-24T05:43:29.044Z,15.57
2023-11-24T05:44:00.841Z,15.10
2023-11-24T05:44:32.704Z,20.30
2023-11-24T05:45:05.858Z,15.45
2023-11-24T05:45:37.641Z,17.80
2023-11-24T05:46:09.496Z,17.52
2023-11-24T05:46:41.330Z,17.17
2023-11-24T05:47:13.123Z,15.55
2023-11-24T05:47:44.952Z,15.13
2023-11-24T05:48:16.779Z,15.13
2023-11-24T05:48:48.572Z,16.48
2023-11-24T05:49:20.368Z,14.63
2023-11-24T05:49:52.431Z,21.85
2023-11-24T05:50:24.279Z,15.60
2023-11-24T05:50:56.109Z,18.17
2023-11-24T05:51:27.921Z,18.70
2023-11-24T05:51:59.888Z,18.40
2023-11-24T05:52:31.764Z,17.60
2023-11-24T05:53:03.567Z,14.80
2023-11-24T05:53:35.360Z,18.75
2023-11-24T05:54:07.283Z,18.55
2023-11-24T05:54:39.078Z,17.52
2023-11-24T05:55:11.582Z,18.80
2023-11-24T05:55:43.412Z,16.65
2023-11-24T05:56:15.200Z,20.92
2023-11-24T05:56:46.969Z,21.75
2023-11-24T05:57:18.753Z,17.65
2023-11-24T05:57:50.701Z,16.17
2023-11-24T05:58:24.024Z,17.63
2023-11-24T05:58:55.833Z,18.10
2023-11-24T05:59:30.014Z,15.30
2023-11-24T06:00:03.207Z,18.33
2023-11-24T06:00:35.038Z,18.98
2023-11-24T06:01:07.016Z,16.35
2023-11-24T06:01:38.854Z,16.58
2023-11-24T06:02:10.694Z,19.00
2023-11-24T06:02:42.506Z,18.23
2023-11-24T06:03:14.271Z,18.40
2023-11-24T06:03:46.128Z,17.80
2023-11-24T06:04:18.023Z,19.85
2023-11-24T06:04:50.574Z,22.85
2023-11-24T06:05:22.746Z,15.80
2023-11-24T06:05:54.831Z,14.05
2023-11-24T06:06:26.657Z,21.52
2023-11-24T06:06:58.538Z,19.40
2023-11-24T06:07:30.496Z,18.50
2023-11-24T06:08:02.301Z,15.38
2023-11-24T06:08:34.068Z,19.50
2023-11-24T06:09:05.895Z,22.55
2023-11-24T06:09:37.679Z,19.42
2023-11-24T06:10:10.715Z,17.42
2023-11-24T06:10:42.609Z,15.32
2023-11-24T06:11:14.437Z,17.85
2023-11-24T06:11:46.225Z,15.85
2023-11-24T06:12:17.998Z,20.65
2023-11-24T06:12:49.920Z,20.67
2023-11-24T06:13:23.061Z,19.45
2023-11-24T06:13:54.852Z,16.38
2023-11-24T06:14:26.648Z,25.58
2023-11-24T06:14:58.430Z,20.85
2023-11-24T06:15:30.271Z,23.17
2023-11-24T06:16:02.194Z,23.77
2023-11-24T06:16:34.089Z,17.90
2023-11-24T06:17:06.195Z,20.15
2023-11-24T06:17:38.116Z,18.80
2023-11-24T06:18:10.062Z,16.50
2023-11-24T06:18:42.001Z,22.20
2023-11-24T06:19:13.888Z,20.65
2023-11-24T06:19:45.708Z,20.23
2023-11-24T06:20:17.750Z,19.02
2023-11-24T06:20:49.613Z,16.83
2023-11-24T06:21:21.365Z,16.48
2023-11-24T06:21:53.245Z,15.80
2023-11-24T06:22:25.096Z,17.80
2023-11-24T06:22:56.881Z,15.88
2023-11-24T06:23:28.675Z,18.35
2023-11-24T06:24:00.470Z,17.75
2023-11-24T06:24:32.353Z,17.80
2023-11-24T06:25:05.232Z,20.30
2023-11-24T06:25:37.246Z,23.60
2023-11-24T06:26:09.055Z,18.85
2023-11-24T06:26:40.824Z,19.75
2023-11-24T06:27:12.628Z,16.38
2023-11-24T06:27:44.771Z,17.20
2023-11-24T06:28:16.718Z,18.13
2023-11-24T06:28:49.857Z,22.98
2023-11-24T06:29:21.693Z,19.50
2023-11-24T06:29:53.744Z,20.45
2023-11-24T06:30:25.607Z,14.88
2023-11-24T06:30:57.405Z,13.88
2023-11-24T06:31:29.233Z,17.30
2023-11-24T06:32:01.068Z,18.30
2023-11-24T06:32:33.041Z,18.85
2023-11-24T06:33:04.880Z,17.75
2023-11-24T06:33:36.746Z,15.45
2023-11-24T06:34:08.762Z,16.88
2023-11-24T06:34:40.687Z,18.58
2023-11-24T06:35:12.518Z,18.48
2023-11-24T06:35:44.308Z,16.10
2023-11-24T06:36:16.240Z,18.17
2023-11-24T06:36:48.041Z,19.80
2023-11-24T06:37:19.926Z,15.68
2023-11-24T06:37:51.769Z,18.67
2023-11-24T06:38:23.590Z,16.00
2023-11-24T06:38:55.437Z,20.15
2023-11-24T06:39:27.337Z,18.15
2023-11-24T06:39:59.128Z,17.17
2023-11-24T06:40:30.922Z,14.82
2023-11-24T06:41:02.867Z,16.67
2023-11-24T06:41:34.724Z,22.35
2023-11-24T06:42:06.589Z,17.52
2023-11-24T06:42:38.481Z,17.75
2023-11-24T06:43:10.440Z,20.88
2023-11-24T06:43:42.295Z,18.73
2023-11-24T06:44:15.545Z,20.27
2023-11-24T06:44:47.459Z,18.10
2023-11-24T06:45:20.767Z,19.10
2023-11-24T06:45:53.891Z,18.92
2023-11-24T06:46:25.730Z,19.63
2023-11-24T06:46:57.562Z,15.32
2023-11-24T06:47:29.537Z,17.63
2023-11-24T06:48:01.497Z,19.10
2023-11-24T06:48:33.431Z,18.13
2023-11-24T06:49:05.430Z,20.50
2023-11-24T06:49:37.256Z,17.50
2023-11-24T06:50:10.230Z,21.90
2023-11-24T06:50:42.055Z,17.88
2023-11-24T06:51:13.844Z,20.00
2023-11-24T06:51:45.782Z,20.63
2023-11-24T06:52:17.661Z,18.02